Time;durP1;ratioP1;P1;durP2;ratioP2;P2;SDS_P1;SDS_P2;PMS_P1;PMS_P2;Temp;Humidity;BMP_temperature;BMP_pressure;BME280_temperature;BME280_humidity;BME280_pressure;Samples;Min_cycle;Max_cycle;Signal;HPM_P1;HPM_P2
2022/01/19 00:00:50;;;;;;;22.80;14.47;;;-10.10;99.90;;;;;;5096022;28;20484;-78
2022/01/19 00:03:16;;;;;;;24.70;15.17;;;-10.40;99.90;;;;;;5096904;28;20457;-81
2022/01/19 00:05:43;;;;;;;19.63;13.40;;;-10.50;99.90;;;;;;5097123;28;20250;-81
2022/01/19 00:08:15;;;;;;;26.30;15.40;;;-10.50;99.90;;;;;;5097017;28;20179;-77
2022/01/19 00:10:41;;;;;;;22.73;14.23;;;-10.20;99.90;;;;;;5097121;28;20886;-75
2022/01/19 00:13:07;;;;;;;23.53;15.07;;;-9.80;99.90;;;;;;5096936;28;20482;-78
2022/01/19 00:15:33;;;;;;;23.73;13.30;;;-9.40;99.90;;;;;;5097085;28;20599;-82
2022/01/19 00:17:59;;;;;;;22.00;15.53;;;-9.70;99.90;;;;;;5096886;28;20182;-82
2022/01/19 00:20:27;;;;;;;23.37;14.20;;;-10.00;99.90;;;;;;5097180;28;20170;-82
2022/01/19 00:22:54;;;;;;;21.30;15.07;;;-9.90;99.90;;;;;;5095368;28;20449;-81
2022/01/19 00:25:20;;;;;;;22.67;13.87;;;-10.20;99.90;;;;;;5096915;28;20401;-81
2022/01/19 00:27:46;;;;;;;24.57;14.53;;;-9.80;99.90;;;;;;5096811;28;20788;-81
2022/01/19 00:30:13;;;;;;;25.67;15.60;;;-10.20;99.90;;;;;;5096707;28;20403;-81
2022/01/19 00:32:39;;;;;;;26.03;14.43;;;-10.30;99.90;;;;;;5095326;28;20691;-80
2022/01/19 00:35:06;;;;;;;27.13;15.50;;;-10.30;99.90;;;;;;5096722;28;20410;-81
2022/01/19 00:37:31;;;;;;;21.90;12.73;;;-10.60;99.90;;;;;;5096480;28;20307;-81
2022/01/19 00:39:57;;;;;;;26.80;14.33;;;-10.60;99.90;;;;;;5096404;28;20778;-81
2022/01/19 00:42:23;;;;;;;27.47;14.13;;;-10.50;99.90;;;;;;5096475;28;20215;-81
2022/01/19 00:44:49;;;;;;;26.67;14.67;;;-10.40;99.90;;;;;;5096357;28;20259;-79
2022/01/19 00:47:15;;;;;;;28.47;15.43;;;-9.90;99.90;;;;;;5096153;28;20169;-81
2022/01/19 00:49:42;;;;;;;26.50;15.23;;;-10.00;99.90;;;;;;5096447;28;20165;-80
2022/01/19 00:52:09;;;;;;;28.83;17.07;;;-10.60;99.90;;;;;;5094887;28;20402;-81
2022/01/19 00:54:35;;;;;;;26.30;15.17;;;-9.90;99.90;;;;;;5095321;28;20399;-81
2022/01/19 00:57:01;;;;;;;23.47;15.17;;;-10.00;99.90;;;;;;5095051;28;20399;-80
2022/01/19 00:59:27;;;;;;;27.80;16.67;;;-9.70;99.90;;;;;;5095252;28;20402;-82
2022/01/19 01:01:53;;;;;;;26.73;15.83;;;-9.90;99.90;;;;;;5094883;28;20485;-80
2022/01/19 01:04:19;;;;;;;32.00;15.93;;;-10.20;99.90;;;;;;5095007;28;20209;-81
2022/01/19 01:06:44;;;;;;;24.83;14.57;;;-10.00;99.90;;;;;;5095012;28;20176;-79
2022/01/19 01:09:10;;;;;;;27.77;16.73;;;-10.10;99.90;;;;;;5095828;28;20174;-79
2022/01/19 01:11:46;;;;;;;27.10;16.50;;;-9.30;99.90;;;;;;5096112;28;20165;-82
2022/01/19 01:16:59;;;;;;;28.33;14.83;;;-10.30;99.90;;;;;;5096147;28;20403;-82
2022/01/19 01:19:25;;;;;;;27.20;17.83;;;-9.80;99.90;;;;;;5094755;28;20421;-81
2022/01/19 01:21:51;;;;;;;26.90;17.00;;;-9.90;99.90;;;;;;5096062;28;20404;-77
2022/01/19 01:24:16;;;;;;;28.23;17.23;;;-10.40;99.90;;;;;;5095730;28;21110;-80
2022/01/19 01:26:42;;;;;;;26.53;16.03;;;-9.70;99.90;;;;;;5094996;28;20476;-81
2022/01/19 01:29:08;;;;;;;25.23;14.20;;;-9.70;99.90;;;;;;5095516;28;20160;-79
2022/01/19 01:31:34;;;;;;;28.43;16.03;;;-9.30;99.90;;;;;;5095844;28;20169;-81
2022/01/19 01:34:00;;;;;;;27.20;18.97;;;-9.30;99.90;;;;;;5096682;28;20172;-81
2022/01/19 01:36:25;;;;;;;25.40;15.70;;;-9.30;99.90;;;;;;5099974;28;20404;-81
2022/01/19 01:38:51;;;;;;;26.50;13.67;;;-8.20;99.90;;;;;;5099838;28;20184;-79
2022/01/19 01:41:17;;;;;;;30.07;17.53;;;-10.60;99.90;;;;;;5098983;28;20281;-77
2022/01/19 01:43:45;;;;;;;30.30;16.27;;;-9.90;99.90;;;;;;5099313;28;20232;-81
2022/01/19 01:46:22;;;;;;;27.33;16.63;;;-10.00;99.90;;;;;;5099931;28;20240;-81
2022/01/19 01:48:48;;;;;;;30.33;17.13;;;-9.70;99.90;;;;;;5099814;28;20398;-81
2022/01/19 01:53:59;;;;;;;35.73;18.17;;;-9.30;99.90;;;;;;5099751;28;20630;-81
2022/01/19 01:56:25;;;;;;;28.03;16.83;;;-9.30;99.90;;;;;;5099680;28;20397;-79
2022/01/19 01:58:51;;;;;;;29.60;17.50;;;-9.10;99.90;;;;;;5099296;28;20406;-77
2022/01/19 02:01:17;;;;;;;31.37;19.33;;;-9.30;99.90;;;;;;5099677;28;20408;-79
2022/01/19 02:03:44;;;;;;;28.17;16.77;;;-9.80;99.90;;;;;;5099294;28;20191;-79
2022/01/19 02:22:02;;;;;;;29.47;18.00;;;-10.40;99.90;;;;;;5099395;28;20534;-77
2022/01/19 02:24:33;;;;;;;29.97;15.53;;;-10.30;99.90;;;;;;5098961;28;20457;-78
2022/01/19 02:27:13;;;;;;;27.40;15.97;;;-11.00;99.90;;;;;;5098818;28;20754;-80
2022/01/19 02:40:27;;;;;;;28.53;17.10;;;-10.50;99.90;;;;;;5098817;28;20467;-79
2022/01/19 02:50:38;;;;;;;32.57;20.20;;;-9.80;99.90;;;;;;5098896;28;20427;-80
2022/01/19 02:53:04;;;;;;;31.20;17.00;;;-9.40;99.90;;;;;;5098562;28;20399;-79
2022/01/19 02:55:32;;;;;;;29.90;17.17;;;-9.20;99.90;;;;;;5098533;28;20173;-80
2022/01/19 02:57:57;;;;;;;24.57;16.83;;;-9.00;99.90;;;;;;5098432;28;20174;-78
2022/01/19 03:08:50;;;;;;;27.03;15.47;;;-8.70;99.90;;;;;;5098189;28;20899;-80
2022/01/19 03:11:19;;;;;;;33.63;17.53;;;-8.70;99.90;;;;;;5096852;28;20407;-78
2022/01/19 03:13:47;;;;;;;27.70;17.47;;;-9.50;99.90;;;;;;5097291;28;20426;-78
2022/01/19 03:16:16;;;;;;;24.73;14.67;;;-9.70;99.90;;;;;;5098051;28;20412;-77
2022/01/19 03:18:41;;;;;;;26.10;16.90;;;-10.30;99.90;;;;;;5097249;28;20912;-78
2022/01/19 03:21:07;;;;;;;23.23;13.87;;;-9.80;99.90;;;;;;5097926;28;20403;-78
2022/01/19 03:23:34;;;;;;;32.50;14.33;;;-9.60;99.90;;;;;;5098036;28;20182;-75
2022/01/19 03:26:04;;;;;;;19.73;14.23;;;-9.10;99.90;;;;;;5096572;28;20867;-78
2022/01/19 03:28:30;;;;;;;23.80;14.30;;;-9.60;99.90;;;;;;5096944;28;20411;-79
2022/01/19 03:30:56;;;;;;;30.23;15.30;;;-7.70;99.90;;;;;;5097749;28;20833;-78
2022/01/19 03:33:22;;;;;;;17.10;11.57;;;-9.30;99.90;;;;;;5097897;28;20174;-78
2022/01/19 03:35:48;;;;;;;18.73;12.17;;;-9.10;99.90;;;;;;5097737;28;20162;-79
2022/01/19 03:38:14;;;;;;;15.40;11.47;;;-8.90;99.90;;;;;;5096526;28;20187;-79
2022/01/19 03:40:40;;;;;;;19.20;13.67;;;-8.80;99.90;;;;;;5096267;28;20170;-80
2022/01/19 03:43:06;;;;;;;18.73;12.63;;;-9.80;99.90;;;;;;5097502;28;20439;-78
2022/01/19 03:45:33;;;;;;;20.40;12.97;;;-9.50;99.90;;;;;;5097475;28;20401;-81
2022/01/19 03:50:38;;;;;;;20.97;12.77;;;-9.40;99.90;;;;;;5097586;28;20392;-80
2022/01/19 03:53:04;;;;;;;21.33;12.40;;;-9.30;99.90;;;;;;5097466;28;20701;-77
2022/01/19 03:55:29;;;;;;;14.57;11.60;;;-9.40;99.90;;;;;;5096204;28;20178;-80
2022/01/19 03:57:56;;;;;;;19.83;12.20;;;-9.10;99.90;;;;;;5095380;28;20259;-78
2022/01/19 04:00:21;;;;;;;21.87;14.53;;;-8.20;99.90;;;;;;5096298;28;20171;-82
2022/01/19 04:02:48;;;;;;;17.63;12.20;;;-8.80;99.90;;;;;;5096113;28;20751;-79
2022/01/19 04:05:25;;;;;;;22.97;12.97;;;-8.70;99.90;;;;;;5097337;28;20170;-81
2022/01/19 04:07:50;;;;;;;24.27;14.07;;;-8.20;99.90;;;;;;5097052;28;20714;-81
2022/01/19 04:10:16;;;;;;;18.67;13.00;;;-8.50;99.90;;;;;;5097027;28;20408;-77
2022/01/19 04:12:56;;;;;;;19.93;13.70;;;-7.50;99.90;;;;;;5096167;28;20171;-78
2022/01/19 04:15:23;;;;;;;15.80;11.20;;;-8.20;99.90;;;;;;5097114;28;20478;-80
2022/01/19 04:17:53;;;;;;;16.23;11.97;;;-8.30;99.90;;;;;;5096956;28;20409;-79
2022/01/19 04:20:23;;;;;;;15.07;12.80;;;-8.40;99.90;;;;;;5097027;28;20422;-79
2022/01/19 04:22:49;;;;;;;17.63;12.77;;;-8.40;99.90;;;;;;5096452;28;20450;-78
2022/01/19 04:25:15;;;;;;;21.70;13.03;;;-7.50;99.90;;;;;;5096906;28;20395;-81
2022/01/19 04:27:43;;;;;;;17.20;11.97;;;-6.40;99.90;;;;;;5096730;28;20597;-77
2022/01/19 04:30:12;;;;;;;15.50;11.77;;;-7.60;99.90;;;;;;5096797;28;20159;-78
2022/01/19 04:35:18;;;;;;;17.27;12.37;;;-7.90;99.90;;;;;;5096589;28;20403;-80
2022/01/19 05:07:21;;;;;;;13.63;12.20;;;-7.80;99.90;;;;;;5095947;28;20393;-81
2022/01/19 05:15:18;;;;;;;12.23;10.93;;;-7.10;99.90;;;;;;5096085;28;20880;-80
2022/01/19 05:17:45;;;;;;;11.27;10.10;;;-6.30;99.90;;;;;;5094932;28;20399;-79
2022/01/19 05:20:12;;;;;;;12.40;10.83;;;-7.70;99.90;;;;;;5096010;28;20737;-81
2022/01/19 05:22:38;;;;;;;11.83;9.63;;;-8.00;99.90;;;;;;5094410;28;20557;-80
2022/01/19 05:25:05;;;;;;;14.53;10.67;;;-7.80;99.90;;;;;;5095981;28;20422;-80
2022/01/19 05:27:31;;;;;;;11.93;10.50;;;-8.00;99.90;;;;;;5095832;28;20454;-81
2022/01/19 05:29:57;;;;;;;13.03;10.43;;;-7.90;99.90;;;;;;5094813;28;20718;-79
2022/01/19 05:32:23;;;;;;;13.70;11.50;;;-8.00;99.90;;;;;;5094802;28;20399;-80
2022/01/19 05:34:49;;;;;;;12.87;9.90;;;-8.80;99.90;;;;;;5095839;28;20166;-81
2022/01/19 05:37:15;;;;;;;13.97;11.07;;;-8.00;99.90;;;;;;5094479;28;20837;-81
2022/01/19 05:39:41;;;;;;;14.07;11.30;;;-8.20;99.90;;;;;;5095403;28;20470;-81
2022/01/19 05:42:13;;;;;;;15.20;13.67;;;-8.10;99.90;;;;;;5095884;28;20199;-81
2022/01/19 05:44:41;;;;;;;12.10;10.50;;;-8.10;99.90;;;;;;5095413;28;20450;-80
2022/01/19 05:47:07;;;;;;;15.63;10.87;;;-7.90;99.90;;;;;;5095618;28;20399;-80
2022/01/19 05:49:32;;;;;;;12.00;10.57;;;-7.50;99.90;;;;;;5095453;28;20396;-79
2022/01/19 05:51:58;;;;;;;12.57;11.10;;;-7.60;99.90;;;;;;5095447;28;20481;-80
2022/01/19 05:54:24;;;;;;;13.67;10.10;;;-7.40;99.90;;;;;;5095506;28;20501;-81
2022/01/19 05:56:50;;;;;;;13.23;11.37;;;-7.40;99.90;;;;;;5095540;28;20491;-79
2022/01/19 05:59:16;;;;;;;13.57;12.13;;;-7.60;99.90;;;;;;5095475;28;20531;-80
2022/01/19 06:01:42;;;;;;;13.17;11.70;;;-7.50;99.90;;;;;;5095929;28;20400;-81
2022/01/19 06:04:08;;;;;;;14.40;12.67;;;-7.40;99.90;;;;;;5095321;28;20286;-78
2022/01/19 06:06:34;;;;;;;18.83;12.37;;;-7.60;99.90;;;;;;5095220;28;20433;-78
2022/01/19 06:09:03;;;;;;;14.70;11.47;;;-6.20;99.90;;;;;;5095503;28;20175;-79
2022/01/19 06:11:28;;;;;;;14.07;11.23;;;-7.60;99.90;;;;;;5095604;28;20171;-75
2022/01/19 06:13:54;;;;;;;12.73;10.63;;;-7.70;99.90;;;;;;5095353;28;20410;-75
2022/01/19 06:16:20;;;;;;;11.60;10.40;;;-7.50;99.90;;;;;;5095402;28;20171;-77
2022/01/19 06:18:46;;;;;;;17.53;12.87;;;-7.70;99.90;;;;;;5094871;28;20407;-76
2022/01/19 06:21:13;;;;;;;13.93;11.07;;;-7.60;99.90;;;;;;5098124;28;20616;-79
2022/01/19 06:23:39;;;;;;;13.87;11.70;;;-7.70;99.90;;;;;;5098997;28;20192;-77
2022/01/19 06:26:05;;;;;;;12.70;10.53;;;-7.70;99.90;;;;;;5098020;28;20719;-80
2022/01/19 06:28:31;;;;;;;14.80;11.97;;;-7.40;99.90;;;;;;5099006;28;20499;-77
2022/01/19 06:30:57;;;;;;;13.20;11.90;;;-5.90;99.90;;;;;;5098949;28;20164;-78
2022/01/19 06:33:22;;;;;;;14.23;12.27;;;-7.50;99.90;;;;;;5098661;28;20175;-79
2022/01/19 06:35:48;;;;;;;13.53;11.20;;;-7.30;99.90;;;;;;5098980;28;20551;-80
2022/01/19 06:38:14;;;;;;;12.13;10.70;;;-7.40;99.90;;;;;;5097556;28;20198;-79
2022/01/19 06:40:40;;;;;;;13.33;12.00;;;-7.50;99.90;;;;;;5098947;28;20171;-77
2022/01/19 06:43:06;;;;;;;13.60;11.30;;;-7.20;99.90;;;;;;5098627;28;20579;-78
2022/01/19 06:45:32;;;;;;;12.43;11.23;;;-7.30;99.90;;;;;;5098716;28;20394;-78
2022/01/19 06:47:58;;;;;;;18.50;14.43;;;-7.20;99.90;;;;;;5098362;28;20482;-79
2022/01/19 06:50:25;;;;;;;14.60;11.97;;;-5.30;99.90;;;;;;5098543;28;20172;-79
2022/01/19 06:52:51;;;;;;;16.53;12.43;;;-7.90;99.90;;;;;;5098526;28;20171;-79
2022/01/19 06:55:18;;;;;;;17.53;11.40;;;-7.50;99.90;;;;;;5098698;28;20396;-82
2022/01/19 06:57:44;;;;;;;14.97;11.40;;;-7.60;99.90;;;;;;5098602;28;20403;-85
2022/01/19 07:00:11;;;;;;;13.90;11.87;;;-7.10;99.90;;;;;;5085583;28;20482;-81
2022/01/19 07:02:37;;;;;;;13.13;11.73;;;-7.30;99.90;;;;;;5077847;28;20889;-77
2022/01/19 07:05:04;;;;;;;13.70;12.40;;;-7.10;99.90;;;;;;5081631;28;20496;-79
2022/01/19 07:07:30;;;;;;;14.90;11.87;;;-7.60;99.90;;;;;;5098334;28;20226;-75
2022/01/19 07:09:56;;;;;;;13.10;11.77;;;-7.10;99.90;;;;;;5098198;28;20400;-75
2022/01/19 07:12:23;;;;;;;13.67;12.20;;;-8.00;99.90;;;;;;5097782;28;20507;-76
2022/01/19 07:14:48;;;;;;;14.37;11.40;;;-7.60;99.90;;;;;;5096654;28;20172;-75
2022/01/19 07:17:14;;;;;;;17.60;12.27;;;-7.40;99.90;;;;;;5096705;28;20811;-74
2022/01/19 07:19:40;;;;;;;13.63;11.70;;;-7.50;99.90;;;;;;5096444;28;20170;-76
2022/01/19 07:22:06;;;;;;;13.30;11.90;;;-7.60;99.90;;;;;;5097192;28;20421;-77
2022/01/19 07:24:32;;;;;;;13.97;12.27;;;-7.90;99.90;;;;;;5097566;28;20621;-79
2022/01/19 07:26:58;;;;;;;13.70;11.73;;;-7.90;99.90;;;;;;5097404;28;20209;-76
2022/01/19 07:29:24;;;;;;;18.50;12.53;;;-8.10;99.90;;;;;;5097530;28;20186;-76
2022/01/19 07:31:50;;;;;;;16.27;13.03;;;-8.00;99.90;;;;;;5096066;28;20631;-74
2022/01/19 07:34:16;;;;;;;17.27;13.37;;;-7.70;99.90;;;;;;5097484;28;20443;-76
2022/01/19 07:36:42;;;;;;;19.70;13.50;;;-7.50;99.90;;;;;;5096658;28;20415;-75
2022/01/19 07:39:09;;;;;;;19.03;12.40;;;-6.80;99.90;;;;;;5096054;28;20593;-75
2022/01/19 07:41:35;;;;;;;16.80;12.53;;;-7.30;99.90;;;;;;5093965;28;20567;-76
2022/01/19 07:44:01;;;;;;;14.67;13.20;;;-7.30;99.90;;;;;;5092465;28;20498;-76
2022/01/19 07:46:26;;;;;;;13.87;10.97;;;-7.90;99.90;;;;;;5097310;28;20215;-75
2022/01/19 07:48:53;;;;;;;13.77;11.20;;;-7.70;99.90;;;;;;5087376;28;20859;-75
2022/01/19 07:51:18;;;;;;;14.30;12.40;;;-7.50;99.90;;;;;;5091359;28;20267;-74
2022/01/19 07:53:44;;;;;;;13.43;12.00;;;-8.20;99.90;;;;;;5076785;28;20493;-75
2022/01/19 07:56:10;;;;;;;15.63;11.97;;;-8.50;99.90;;;;;;5076141;28;20230;-75
2022/01/19 07:58:36;;;;;;;21.90;14.43;;;-8.20;99.90;;;;;;5075011;28;20224;-74
2022/01/19 08:01:01;;;;;;;14.17;12.33;;;-8.10;99.90;;;;;;5075229;28;20548;-75
2022/01/19 08:03:27;;;;;;;41.00;17.70;;;-6.80;99.90;;;;;;5076371;28;20274;-75
2022/01/19 08:05:53;;;;;;;15.67;13.27;;;-6.80;99.90;;;;;;5076801;28;20561;-74
2022/01/19 08:08:18;;;;;;;23.63;14.07;;;-7.00;99.90;;;;;;5076113;28;20559;-74
2022/01/19 08:10:45;;;;;;;15.27;13.67;;;-7.00;99.90;;;;;;5076783;28;20184;-75
2022/01/19 08:13:14;;;;;;;14.27;12.77;;;-7.00;99.90;;;;;;5075010;28;20174;-73
2022/01/19 08:15:39;;;;;;;21.50;15.47;;;-7.50;99.90;;;;;;5075308;28;20458;-74
2022/01/19 08:18:05;;;;;;;17.80;14.67;;;-7.70;99.90;;;;;;5085715;28;20420;-78
2022/01/19 08:20:31;;;;;;;14.00;12.63;;;-7.30;99.90;;;;;;5096683;28;20164;-75
2022/01/19 08:22:57;;;;;;;14.87;12.40;;;-7.20;99.90;;;;;;5084497;28;20204;-74
2022/01/19 08:25:23;;;;;;;14.00;12.47;;;-6.90;99.90;;;;;;5076462;28;20184;-75
2022/01/19 08:27:49;;;;;;;15.90;13.57;;;-5.90;99.90;;;;;;5076098;28;20293;-72
2022/01/19 08:30:15;;;;;;;14.47;12.50;;;-7.30;99.90;;;;;;5075361;28;20454;-75
2022/01/19 08:32:42;;;;;;;13.83;12.20;;;-7.50;99.90;;;;;;5074584;28;20274;-73
2022/01/19 08:35:08;;;;;;;15.57;13.33;;;-7.10;99.90;;;;;;5075843;28;20402;-73
2022/01/19 08:37:34;;;;;;;14.63;12.27;;;-7.50;99.90;;;;;;5075544;28;20406;-73
2022/01/19 08:40:01;;;;;;;15.60;12.53;;;-7.10;99.90;;;;;;5075704;28;20425;-74
2022/01/19 08:42:28;;;;;;;14.87;13.00;;;-6.90;99.90;;;;;;5075224;28;20240;-73
2022/01/19 08:44:54;;;;;;;14.00;12.13;;;-7.40;99.90;;;;;;5075797;28;20430;-73
2022/01/19 08:47:21;;;;;;;15.03;13.13;;;-7.00;99.90;;;;;;5082616;28;20423;-73
2022/01/19 08:49:47;;;;;;;14.00;12.33;;;-6.70;99.90;;;;;;5095823;28;20588;-76
2022/01/19 08:52:12;;;;;;;19.73;12.60;;;-7.20;99.90;;;;;;5096158;28;20772;-76
2022/01/19 08:54:38;;;;;;;23.10;13.30;;;-7.30;99.90;;;;;;5095226;28;20180;-74
2022/01/19 08:57:04;;;;;;;18.57;12.77;;;-7.50;99.90;;;;;;5095944;28;20512;-73
2022/01/19 08:59:31;;;;;;;21.80;13.20;;;-7.30;99.90;;;;;;5095056;28;20151;-73
2022/01/19 09:01:58;;;;;;;16.93;13.33;;;-7.60;99.90;;;;;;5095917;28;20442;-78
2022/01/19 09:04:24;;;;;;;18.80;12.83;;;-7.30;99.90;;;;;;5094813;28;20548;-73
2022/01/19 09:06:50;;;;;;;14.87;12.80;;;-7.30;99.90;;;;;;5095440;28;20410;-74
2022/01/19 09:09:16;;;;;;;17.43;12.50;;;-7.20;99.90;;;;;;5094196;28;20918;-74
2022/01/19 09:11:43;;;;;;;21.43;13.70;;;-7.90;99.90;;;;;;5095367;28;20830;-73
2022/01/19 09:14:10;;;;;;;14.47;12.77;;;-7.30;99.90;;;;;;5095388;28;20392;-73
2022/01/19 09:16:36;;;;;;;16.13;12.33;;;-7.70;99.90;;;;;;5095769;28;20497;-73
2022/01/19 09:19:03;;;;;;;18.77;13.87;;;-7.20;99.90;;;;;;5075671;28;20497;-74
2022/01/19 09:21:29;;;;;;;19.07;14.37;;;-8.20;99.90;;;;;;5074648;28;20572;-73
2022/01/19 09:23:55;;;;;;;19.43;13.67;;;-8.00;99.90;;;;;;5074055;28;20469;-73
2022/01/19 09:26:21;;;;;;;15.40;12.93;;;-7.80;99.90;;;;;;5075393;28;20399;-73
2022/01/19 09:28:47;;;;;;;19.13;13.60;;;-7.40;99.90;;;;;;5074479;28;20706;-73
2022/01/19 09:31:16;;;;;;;15.90;13.07;;;-7.30;99.90;;;;;;5075316;28;20189;-75
2022/01/19 09:33:43;;;;;;;18.97;15.17;;;-7.40;99.90;;;;;;5075407;28;20189;-76
2022/01/19 09:36:29;;;;;;;17.83;13.23;;;-7.30;99.90;;;;;;5075334;28;20398;-75
2022/01/19 09:38:56;;;;;;;19.67;14.43;;;-6.30;99.90;;;;;;5087502;28;20461;-73
2022/01/19 09:41:22;;;;;;;18.13;15.13;;;-7.20;99.90;;;;;;5083947;28;20412;-77
2022/01/19 09:43:48;;;;;;;26.70;15.50;;;-7.20;99.90;;;;;;5073759;28;20516;-74
2022/01/19 09:46:14;;;;;;;19.93;14.83;;;-7.30;99.90;;;;;;5075293;28;20386;-73
2022/01/19 09:48:40;;;;;;;19.53;14.93;;;-7.20;99.90;;;;;;5089069;28;20642;-77
2022/01/19 09:51:06;;;;;;;19.70;14.67;;;-7.00;99.90;;;;;;5094002;28;20169;-74
2022/01/19 09:53:32;;;;;;;22.30;15.43;;;-6.60;99.90;;;;;;5094371;28;20174;-74
2022/01/19 09:55:58;;;;;;;27.63;18.40;;;-6.50;99.90;;;;;;5096802;28;20475;-77
2022/01/19 09:58:24;;;;;;;20.30;14.87;;;-6.90;99.90;;;;;;5098871;28;20179;-76
2022/01/19 10:00:51;;;;;;;23.60;14.90;;;-7.00;99.90;;;;;;5098538;28;20400;-76
2022/01/19 10:03:27;;;;;;;23.60;15.33;;;-6.80;99.90;;;;;;5099213;28;20809;-79
2022/01/19 10:06:10;;;;;;;22.40;16.03;;;-6.70;99.90;;;;;;5097825;28;20749;-79
2022/01/19 10:08:54;;;;;;;21.27;15.70;;;-6.20;99.90;;;;;;5098867;28;20941;-78
2022/01/19 10:17:06;;;;;;;20.43;15.60;;;-7.00;99.90;;;;;;5097754;28;20406;-76
2022/01/19 10:19:33;;;;;;;19.83;16.53;;;-7.00;99.90;;;;;;5077080;28;20421;-77
2022/01/19 10:22:06;;;;;;;20.27;15.23;;;-6.70;99.90;;;;;;5078114;28;20390;-77
2022/01/19 10:24:35;;;;;;;24.43;16.67;;;-6.70;99.90;;;;;;5077504;28;20752;-72
2022/01/19 10:27:37;;;;;;;24.73;17.33;;;-5.20;99.90;;;;;;5078378;28;20486;-75
2022/01/19 10:30:03;;;;;;;28.47;18.10;;;-6.30;99.90;;;;;;5076113;28;20413;-74
2022/01/19 10:32:37;;;;;;;24.87;19.27;;;-6.40;99.90;;;;;;5076755;28;20405;-79
2022/01/19 10:35:23;;;;;;;26.23;19.60;;;-4.50;99.90;;;;;;5078311;28;20478;-79
2022/01/19 10:38:07;;;;;;;40.77;23.87;;;-5.80;99.90;;;;;;5077904;28;20427;-79
2022/01/19 10:40:34;;;;;;;21.00;17.40;;;-4.50;99.90;;;;;;5077575;28;20501;-80
2022/01/19 10:43:20;;;;;;;19.50;15.63;;;-4.20;99.90;;;;;;5076690;28;20868;-79
2022/01/19 10:45:46;;;;;;;17.47;14.57;;;-6.10;99.90;;;;;;5078024;28;20408;-75
2022/01/19 10:48:38;;;;;;;19.27;15.33;;;-6.70;99.90;;;;;;5089140;28;20701;-78
2022/01/19 10:51:13;;;;;;;23.67;15.53;;;-6.80;99.90;;;;;;5097569;28;20171;-74
2022/01/19 10:53:41;;;;;;;25.07;16.67;;;-6.70;99.90;;;;;;5097946;28;20418;-75
2022/01/19 10:56:21;;;;;;;21.67;15.43;;;-7.10;99.90;;;;;;5097887;28;20396;-75
2022/01/19 10:58:59;;;;;;;19.37;15.17;;;-6.70;99.90;;;;;;5098227;28;20398;-75
2022/01/19 11:01:37;;;;;;;20.00;15.77;;;-6.50;99.90;;;;;;5084321;28;20396;-73
2022/01/19 11:04:20;;;;;;;22.03;16.57;;;-6.20;99.90;;;;;;5076514;28;20801;-74
2022/01/19 11:06:59;;;;;;;23.10;17.93;;;-6.50;99.90;;;;;;5076238;28;20776;-74
2022/01/19 11:09:27;;;;;;;22.87;16.10;;;-6.70;99.90;;;;;;5076172;28;20408;-74
2022/01/19 11:11:55;;;;;;;21.50;16.50;;;-6.70;99.90;;;;;;5077000;28;20400;-74
2022/01/19 11:14:24;;;;;;;19.97;15.07;;;-6.30;99.90;;;;;;5077647;28;20400;-76
2022/01/19 11:16:51;;;;;;;20.53;15.43;;;-5.90;99.90;;;;;;5077754;28;20400;-74
2022/01/19 11:19:18;;;;;;;22.43;16.77;;;-5.20;99.90;;;;;;5097179;28;20392;-81
2022/01/19 11:22:17;;;;;;;20.93;16.13;;;-5.50;99.90;;;;;;5081980;28;20421;-74
2022/01/19 11:24:45;;;;;;;24.37;17.87;;;-6.10;99.90;;;;;;5056344;28;20936;-75
2022/01/19 11:27:11;;;;;;;23.50;14.17;;;-6.00;99.90;;;;;;5079867;28;20447;-74
2022/01/19 11:29:39;;;;;;;18.40;15.13;;;-6.10;99.90;;;;;;5077233;28;20402;-75
2022/01/19 11:32:20;;;;;;;23.20;14.53;;;-6.00;99.90;;;;;;5079087;28;20435;-77
2022/01/19 11:34:50;;;;;;;23.03;15.53;;;-5.90;99.90;;;;;;5077675;28;20843;-76
2022/01/19 11:37:33;;;;;;;19.87;15.90;;;-5.70;99.90;;;;;;5077016;28;20731;-76
2022/01/19 11:40:13;;;;;;;18.73;15.27;;;-5.60;99.90;;;;;;5076436;28;20453;-77
2022/01/19 11:42:40;;;;;;;24.43;16.70;;;-5.60;99.90;;;;;;5077061;28;20476;-74
2022/01/19 11:45:08;;;;;;;26.43;18.30;;;-5.30;99.90;;;;;;5076750;28;20861;-73
2022/01/19 11:47:34;;;;;;;18.27;16.00;;;-6.20;99.90;;;;;;5083019;28;20427;-74
2022/01/19 11:50:05;;;;;;;24.60;15.87;;;-6.60;99.90;;;;;;5097137;28;20394;-76
2022/01/19 11:52:41;;;;;;;23.07;17.33;;;-6.20;99.90;;;;;;5075913;28;20479;-75
2022/01/19 11:55:22;;;;;;;23.17;17.10;;;-6.40;99.90;;;;;;5076839;28;20399;-72
2022/01/19 11:58:09;;;;;;;26.87;16.50;;;-6.50;99.90;;;;;;5076442;28;20396;-76
2022/01/19 12:00:35;;;;;;;24.13;16.57;;;-6.60;99.90;;;;;;5076465;28;20396;-74
2022/01/19 12:03:24;;;;;;;18.93;15.10;;;-6.20;99.90;;;;;;5074472;28;20446;-74
2022/01/19 12:05:52;;;;;;;24.10;17.77;;;-6.00;99.90;;;;;;5076194;28;20466;-76
2022/01/19 12:08:24;;;;;;;22.93;16.93;;;-3.80;99.90;;;;;;5074878;28;20707;-75
2022/01/19 12:10:56;;;;;;;22.40;17.67;;;-5.90;99.90;;;;;;5082717;28;20412;-75
2022/01/19 12:14:09;;;;;;;26.70;18.80;;;-6.00;99.90;;;;;;5094972;28;20467;-75
2022/01/19 12:16:51;;;;;;;31.37;18.77;;;-6.20;99.90;;;;;;5090108;28;20420;-74
2022/01/19 12:19:20;;;;;;;20.70;15.40;;;-6.00;99.90;;;;;;5075423;28;20402;-73
2022/01/19 12:22:20;;;;;;;21.50;16.37;;;-5.40;99.90;;;;;;5089514;28;20530;-74
2022/01/19 12:25:11;;;;;;;22.50;16.00;;;-5.40;99.90;;;;;;5095438;28;20439;-74
2022/01/19 12:27:50;;;;;;;23.67;15.80;;;-6.20;99.90;;;;;;5096349;28;20767;-74
2022/01/19 12:30:29;;;;;;;21.97;16.33;;;-7.10;99.90;;;;;;5096005;28;20826;-77
2022/01/19 12:33:04;;;;;;;27.50;17.70;;;-4.90;99.90;;;;;;5095878;28;20399;-76
2022/01/19 12:35:34;;;;;;;25.20;16.00;;;-6.30;99.90;;;;;;5096339;28;20397;-75
2022/01/19 12:38:20;;;;;;;20.37;15.93;;;-3.90;99.90;;;;;;5095121;28;20883;-75
2022/01/19 12:40:48;;;;;;;24.13;17.07;;;-5.40;99.90;;;;;;5089562;28;20416;-75
2022/01/19 12:43:35;;;;;;;24.53;16.37;;;-5.80;99.90;;;;;;5088270;28;20539;-74
2022/01/19 12:46:04;;;;;;;24.10;15.67;;;-5.40;99.90;;;;;;5095464;28;20461;-74
2022/01/19 12:48:47;;;;;;;25.17;17.73;;;-5.60;99.90;;;;;;5095634;28;20404;-74
2022/01/19 12:51:42;;;;;;;20.63;16.50;;;-6.00;99.90;;;;;;5095274;28;20491;-74
2022/01/19 12:54:11;;;;;;;24.33;17.73;;;-5.80;99.90;;;;;;5095776;28;20861;-74
2022/01/19 12:56:37;;;;;;;26.30;18.30;;;-5.10;99.90;;;;;;5096137;28;20399;-73
2022/01/19 12:59:07;;;;;;;24.83;17.83;;;-5.10;99.90;;;;;;5094778;28;20408;-76
2022/01/19 13:01:33;;;;;;;23.07;17.83;;;-3.70;99.90;;;;;;5095403;28;20170;-75
2022/01/19 13:03:59;;;;;;;24.00;17.23;;;-6.40;99.90;;;;;;5095589;28;20471;-75
2022/01/19 13:06:28;;;;;;;23.93;17.93;;;-6.70;99.90;;;;;;5094090;28;20839;-74
2022/01/19 13:09:03;;;;;;;24.57;18.70;;;-7.40;99.90;;;;;;5094930;28;20166;-72
2022/01/19 13:11:52;;;;;;;23.13;18.67;;;-7.90;99.90;;;;;;5094183;28;20417;-75
2022/01/19 13:14:18;;;;;;;29.03;18.37;;;-7.70;99.90;;;;;;5095395;28;20391;-75
2022/01/19 13:16:48;;;;;;;25.13;18.10;;;-7.10;99.90;;;;;;5095901;28;20393;-74
2022/01/19 13:19:20;;;;;;;23.93;18.33;;;-4.30;99.90;;;;;;5094836;28;20408;-73
2022/01/19 13:22:01;;;;;;;26.73;17.87;;;-4.40;99.90;;;;;;5095205;28;20401;-75
2022/01/19 13:24:30;;;;;;;24.47;17.30;;;-7.20;99.90;;;;;;5094853;28;20450;-76
2022/01/19 13:27:03;;;;;;;24.63;18.17;;;-7.10;99.90;;;;;;5095677;28;20484;-73
2022/01/19 13:29:42;;;;;;;28.57;19.07;;;-6.90;99.90;;;;;;5094947;28;20726;-74
2022/01/19 13:32:16;;;;;;;27.37;18.60;;;-6.40;99.90;;;;;;5095092;28;20404;-74
2022/01/19 13:35:04;;;;;;;28.57;17.47;;;-6.20;99.90;;;;;;5095145;28;20395;-78
2022/01/19 13:37:58;;;;;;;30.37;17.93;;;-7.30;99.90;;;;;;5095695;28;20430;-73
2022/01/19 13:40:33;;;;;;;27.37;18.43;;;-7.70;99.90;;;;;;5095084;28;20436;-73
2022/01/19 13:43:05;;;;;;;22.57;17.07;;;-7.90;99.90;;;;;;5094343;28;20449;-75
2022/01/19 13:50:48;;;;;;;29.30;19.33;;;-7.50;99.90;;;;;;5093142;28;20409;-74
2022/01/19 13:53:37;;;;;;;30.23;21.27;;;-6.00;99.90;;;;;;5095163;28;20491;-74
2022/01/19 13:56:10;;;;;;;27.27;18.57;;;-7.80;99.90;;;;;;5095343;28;20564;-77
2022/01/19 13:58:41;;;;;;;31.47;17.37;;;-7.70;99.90;;;;;;5095081;28;20490;-72
2022/01/19 14:01:13;;;;;;;29.63;21.27;;;-5.30;99.90;;;;;;5093770;28;20440;-77
2022/01/19 14:03:57;;;;;;;29.63;20.03;;;-7.50;99.90;;;;;;5090224;28;20896;-75
2022/01/19 14:06:27;;;;;;;28.20;19.57;;;-7.60;99.90;;;;;;5077516;28;20416;-75
2022/01/19 14:09:08;;;;;;;24.77;18.20;;;-7.50;99.90;;;;;;5078468;28;20731;-75
2022/01/19 14:11:34;;;;;;;27.67;19.50;;;-7.50;99.90;;;;;;5079447;28;20464;-73
2022/01/19 14:14:21;;;;;;;24.50;18.07;;;-7.30;99.90;;;;;;5074402;28;20442;-74
2022/01/19 14:16:49;;;;;;;33.83;19.97;;;-7.40;99.90;;;;;;5073868;28;20429;-73